createdAt,value
2023-02-05T00:03:14.508Z,103096.02
2023-02-05T00:08:37.215Z,103100.78
2023-02-05T00:14:01.486Z,103095.50
2023-02-05T00:19:23.922Z,103110.20
2023-02-05T00:24:46.268Z,103120.65
2023-02-05T00:30:08.618Z,103115.97
2023-02-05T00:35:31.040Z,103129.03
2023-02-05T00:40:53.821Z,103132.46
2023-02-05T00:46:16.552Z,103141.05
2023-02-05T00:51:39.740Z,103143.60
2023-02-05T00:57:01.974Z,103136.62
2023-02-05T01:02:25.501Z,103137.28
2023-02-05T01:07:48.105Z,103132.81
2023-02-05T01:13:11.061Z,103145.56
2023-02-05T01:18:33.450Z,103141.25
2023-02-05T01:23:57.056Z,103135.81
2023-02-05T01:29:19.409Z,103130.47
2023-02-05T01:34:42.168Z,103119.99
2023-02-05T01:40:04.525Z,103108.83
2023-02-05T01:46:08.105Z,103108.09
2023-02-05T01:51:33.908Z,103119.06
2023-02-05T01:57:10.667Z,103116.33
2023-02-05T02:02:33.422Z,103111.70
2023-02-05T02:07:56.153Z,103095.88
2023-02-05T02:13:20.101Z,103108.28
2023-02-05T02:18:44.335Z,103102.59
2023-02-05T02:25:04.997Z,103101.49
2023-02-05T02:30:32.557Z,103101.52
2023-02-05T02:36:15.150Z,103091.61
2023-02-05T02:41:48.096Z,103094.07
2023-02-05T02:47:15.864Z,103078.41
2023-02-05T02:52:41.476Z,103086.86
2023-02-05T02:58:05.740Z,103077.04
2023-02-05T03:03:31.347Z,103067.50
2023-02-05T03:09:28.201Z,103066.14
2023-02-05T03:14:51.317Z,103060.82
2023-02-05T03:20:37.634Z,103064.16
2023-02-05T03:26:01.017Z,103069.35
2023-02-05T03:31:34.630Z,103066.56
2023-02-05T03:37:13.867Z,103072.35
2023-02-05T03:42:53.427Z,103075.48
2023-02-05T03:48:35.710Z,103074.70
2023-02-05T03:54:03.006Z,103078.77
2023-02-05T03:59:27.395Z,103092.52
2023-02-05T04:04:50.475Z,103093.18
2023-02-05T04:10:13.062Z,103095.86
2023-02-05T04:15:36.324Z,103091.48
2023-02-05T04:21:00.924Z,103094.09
2023-02-05T04:26:23.292Z,103095.81
2023-02-05T04:31:46.263Z,103102.25
2023-02-05T04:37:09.113Z,103101.88
2023-02-05T04:42:31.554Z,103095.04
2023-02-05T04:47:54.245Z,103102.61
2023-02-05T04:53:16.632Z,103107.06
2023-02-05T04:58:39.347Z,103116.86
2023-02-05T05:04:02.444Z,103120.65
2023-02-05T05:09:25.494Z,103128.73
2023-02-05T05:14:47.730Z,103137.74
2023-02-05T05:20:10.390Z,103134.14
2023-02-05T05:25:33.632Z,103131.53
2023-02-05T05:31:00.320Z,103140.02
2023-02-05T05:36:23.118Z,103131.97
2023-02-05T05:42:03.155Z,103132.03
2023-02-05T05:47:26.283Z,103137.14
2023-02-05T05:52:49.208Z,103152.20
2023-02-05T05:58:11.636Z,103166.55
2023-02-05T06:03:34.355Z,103173.45
2023-02-05T06:08:56.907Z,103187.91
2023-02-05T06:14:19.229Z,103194.27
2023-02-05T06:19:41.906Z,103212.86
2023-02-05T06:25:05.088Z,103210.09
2023-02-05T06:30:28.533Z,103217.30
2023-02-05T06:35:51.912Z,103216.95
2023-02-05T06:41:14.345Z,103211.57
2023-02-05T06:46:36.716Z,103219.22
2023-02-05T06:51:59.120Z,103229.81
2023-02-05T06:57:21.435Z,103224.30
2023-02-05T07:02:43.859Z,103226.37
2023-02-05T07:08:07.219Z,103224.66
2023-02-05T07:13:30.018Z,103219.62
2023-02-05T07:18:53.467Z,103221.48
2023-02-05T07:24:15.829Z,103234.66
2023-02-05T07:29:38.083Z,103240.48
2023-02-05T07:35:00.637Z,103247.48
2023-02-05T07:40:23.435Z,103244.38
2023-02-05T07:45:45.900Z,103253.34
2023-02-05T07:51:08.210Z,103259.16
2023-02-05T07:56:31.626Z,103261.23
2023-02-05T08:01:53.950Z,103255.59
2023-02-05T08:07:18.026Z,103271.91
2023-02-05T08:12:40.275Z,103266.78
2023-02-05T08:18:02.627Z,103275.55
2023-02-05T08:23:24.998Z,103283.20
2023-02-05T08:28:47.859Z,103281.19
2023-02-05T08:34:10.117Z,103289.70
2023-02-05T08:39:32.465Z,103302.14
2023-02-05T08:44:56.900Z,103300.02
2023-02-05T08:50:19.654Z,103290.05
2023-02-05T08:55:41.951Z,103305.30
2023-02-05T09:01:08.961Z,103300.77
2023-02-05T09:06:33.286Z,103292.52
2023-02-05T09:11:55.610Z,103289.09
2023-02-05T09:17:19.460Z,103293.28
2023-02-05T09:22:41.670Z,103301.84
2023-02-05T09:28:04.803Z,103290.41
2023-02-05T09:33:27.826Z,103298.09
2023-02-05T09:38:50.112Z,103281.35
2023-02-05T09:44:50.664Z,103280.78
2023-02-05T09:50:33.739Z,103266.47
2023-02-05T09:55:57.611Z,103256.76
2023-02-05T10:01:30.242Z,103247.35
2023-02-05T10:07:25.638Z,103231.05
2023-02-05T10:13:08.444Z,103226.96
2023-02-05T10:18:47.353Z,103223.77
2023-02-05T10:24:32.883Z,103219.14
2023-02-05T10:30:15.218Z,103211.55
2023-02-05T10:35:48.951Z,103219.11
2023-02-05T10:41:36.827Z,103219.41
2023-02-05T10:47:04.009Z,103219.02
2023-02-05T10:52:28.946Z,103227.72
2023-02-05T10:57:53.741Z,103221.02
2023-02-05T11:03:17.620Z,103228.17
2023-02-05T11:08:57.051Z,103229.98
2023-02-05T11:14:29.495Z,103230.88
2023-02-05T11:20:02.494Z,103214.95
2023-02-05T11:25:36.738Z,103208.05
2023-02-05T11:30:59.943Z,103199.50
2023-02-05T11:36:29.559Z,103191.55
2023-02-05T11:41:57.054Z,103190.63
2023-02-05T11:47:23.672Z,103177.52
2023-02-05T11:52:49.652Z,103169.51
2023-02-05T11:58:37.117Z,103172.11
2023-02-05T12:04:07.950Z,103162.37
2023-02-05T12:09:36.074Z,103165.02
2023-02-05T12:15:28.846Z,103157.12
2023-02-05T12:21:17.958Z,103160.64
2023-02-05T12:27:07.165Z,103157.34
2023-02-05T12:32:50.137Z,103159.88
2023-02-05T12:38:46.146Z,103165.79
2023-02-05T12:44:21.979Z,103151.62
2023-02-05T12:50:13.124Z,103167.08
2023-02-05T12:55:41.830Z,103164.66
2023-02-05T13:01:09.603Z,103158.55
2023-02-05T13:06:37.025Z,103152.70
2023-02-05T13:12:07.703Z,103166.72
2023-02-05T13:17:35.404Z,103156.31
2023-02-05T13:23:20.366Z,103159.67
2023-02-05T13:28:53.692Z,103158.80
2023-02-05T13:34:20.314Z,103172.83
2023-02-05T13:40:26.742Z,103163.08
2023-02-05T13:46:26.027Z,103166.42
2023-02-05T13:52:20.934Z,103158.47
2023-02-05T13:58:23.068Z,103170.77
2023-02-05T14:03:54.330Z,103170.82
2023-02-05T14:09:28.378Z,103176.03
2023-02-05T14:14:56.207Z,103177.70
2023-02-05T14:20:43.441Z,103176.66
2023-02-05T14:26:18.714Z,103189.79
2023-02-05T14:31:51.897Z,103195.03
2023-02-05T14:37:42.328Z,103202.09
2023-02-05T14:43:10.729Z,103199.25
2023-02-05T14:48:49.045Z,103199.16
2023-02-05T14:54:16.244Z,103199.92
2023-02-05T15:00:07.098Z,103196.28
2023-02-05T15:05:55.730Z,103190.88
2023-02-05T15:11:35.870Z,103184.54
2023-02-05T15:17:16.625Z,103182.66
2023-02-05T15:22:53.329Z,103185.98
2023-02-05T15:28:22.974Z,103194.53
2023-02-05T15:34:16.150Z,103174.91
2023-02-05T15:39:58.641Z,103192.95
2023-02-05T15:45:41.406Z,103193.51
2023-02-05T15:51:11.550Z,103195.94
2023-02-05T15:56:43.955Z,103195.53
2023-02-05T16:02:25.297Z,103199.27
2023-02-05T16:13:29.373Z,103209.56
2023-02-05T16:19:05.479Z,103208.88
2023-02-05T16:24:35.708Z,103202.64
2023-02-05T16:30:06.313Z,103209.16
2023-02-05T16:35:42.658Z,103215.82
2023-02-05T16:41:10.165Z,103218.80
2023-02-05T16:46:39.168Z,103204.58
2023-02-05T16:52:07.211Z,103217.36
2023-02-05T16:57:41.209Z,103210.72
2023-02-05T17:03:09.863Z,103213.88
2023-02-05T17:08:38.591Z,103228.47
2023-02-05T17:14:03.684Z,103228.33
2023-02-05T17:19:37.218Z,103239.75
2023-02-05T17:25:02.543Z,103231.03
2023-02-05T17:30:28.520Z,103227.23
2023-02-05T17:35:50.853Z,103231.09
2023-02-05T17:41:30.600Z,103248.94
2023-02-05T17:46:47.142Z,103230.70
2023-02-05T17:52:09.369Z,103231.28
2023-02-05T17:57:36.929Z,103228.73
2023-02-05T18:02:59.562Z,103234.28
2023-02-05T18:08:25.048Z,103235.67
2023-02-05T18:13:47.972Z,103230.61
2023-02-05T18:19:10.961Z,103234.95
2023-02-05T18:24:35.395Z,103221.40
2023-02-05T18:29:58.293Z,103232.95
2023-02-05T18:35:21.540Z,103243.68
2023-02-05T18:40:44.109Z,103244.79
2023-02-05T18:46:08.492Z,103255.30
2023-02-05T18:51:33.956Z,103252.73
2023-02-05T18:56:57.483Z,103265.58
2023-02-05T19:02:20.276Z,103260.29
2023-02-05T19:07:44.252Z,103274.27
2023-02-05T19:13:07.327Z,103268.00
2023-02-05T19:18:31.470Z,103275.30
2023-02-05T19:23:57.941Z,103286.88
2023-02-05T19:29:24.629Z,103284.03
2023-02-05T19:34:47.714Z,103288.28
2023-02-05T19:40:12.406Z,103303.61
2023-02-05T19:45:35.182Z,103303.30
2023-02-05T19:50:57.913Z,103305.50
2023-02-05T19:56:24.538Z,103312.47
2023-02-05T20:01:50.188Z,103315.47
2023-02-05T20:07:18.886Z,103302.92
2023-02-05T20:12:41.992Z,103309.94
2023-02-05T20:18:04.363Z,103307.27
2023-02-05T20:23:26.600Z,103293.77
2023-02-05T20:29:03.207Z,103290.11
2023-02-05T20:34:41.815Z,103292.92
2023-02-05T20:40:05.582Z,103302.44
2023-02-05T20:45:28.381Z,103296.72
2023-02-05T20:50:50.638Z,103309.85
2023-02-05T20:56:23.193Z,103303.20
2023-02-05T21:01:48.288Z,103302.48
2023-02-05T21:07:10.692Z,103299.12
2023-02-05T21:12:34.211Z,103309.85
2023-02-05T21:17:56.981Z,103322.48
2023-02-05T21:23:19.407Z,103324.20
2023-02-05T21:28:42.260Z,103330.42
2023-02-05T21:34:04.619Z,103337.13
2023-02-05T21:39:27.014Z,103333.50
2023-02-05T21:44:51.242Z,103318.80
2023-02-05T21:50:14.498Z,103320.72
2023-02-05T21:55:37.031Z,103331.05
2023-02-05T22:00:59.457Z,103332.92
2023-02-05T22:06:22.905Z,103339.09
2023-02-05T22:11:46.568Z,103346.81
2023-02-05T22:17:09.038Z,103345.08
2023-02-05T22:22:31.383Z,103346.02
2023-02-05T22:27:53.608Z,103343.39
2023-02-05T22:33:16.021Z,103339.70
2023-02-05T22:38:39.710Z,103343.05
2023-02-05T22:44:04.153Z,103342.25
2023-02-05T22:49:26.767Z,103330.93
2023-02-05T22:54:48.986Z,103339.23
2023-02-05T23:00:11.310Z,103326.98
2023-02-05T23:05:36.541Z,103341.48
2023-02-05T23:10:59.726Z,103331.67
2023-02-05T23:16:32.136Z,103328.13
2023-02-05T23:21:55.887Z,103334.10
2023-02-05T23:27:19.256Z,103342.98
2023-02-05T23:32:41.499Z,103347.23
2023-02-05T23:38:03.719Z,103344.02
2023-02-05T23:43:26.002Z,103340.52
2023-02-05T23:48:48.747Z,103347.66
2023-02-05T23:54:11.407Z,103312.75
2023-02-05T23:59:34.534Z,103313.37
